Time;durP1;ratioP1;P1;durP2;ratioP2;P2;SDS_P1;SDS_P2;PMS_P1;PMS_P2;Temp;Humidity;BMP_temperature;BMP_pressure;BME280_temperature;BME280_humidity;BME280_pressure;Samples;Min_cycle;Max_cycle;Signal;HPM_P1;HPM_P2
2023/06/14 00:01:51;;;;;;;2.67;1.05;;;;;;;;;;6121851;23;20014;-88
2023/06/14 00:04:18;;;;;;;1.13;0.90;;;;;;;;;;6123699;23;20056;-88
2023/06/14 00:06:45;;;;;;;1.77;1.25;;;;;;;;;;6123069;23;20021;-87
2023/06/14 00:09:17;;;;;;;6.63;1.05;;;;;;;;;;6123430;23;20020;-85
2023/06/14 00:11:43;;;;;;;2.17;1.10;;;;;;;;;;6122097;23;20029;-86
2023/06/14 00:14:09;;;;;;;1.63;1.05;;;;;;;;;;6122206;23;20021;-86
2023/06/14 00:16:36;;;;;;;2.45;1.27;;;;;;;;;;6122773;23;20010;-89
2023/06/14 00:19:04;;;;;;;3.13;1.48;;;;;;;;;;6123541;23;20417;-87
2023/06/14 00:21:30;;;;;;;2.15;1.20;;;;;;;;;;6120723;23;20022;-84
2023/06/14 00:23:58;;;;;;;1.27;0.93;;;;;;;;;;6122293;23;20018;-85
2023/06/14 00:26:23;;;;;;;2.35;1.25;;;;;;;;;;6122158;23;20403;-87
2023/06/14 00:28:49;;;;;;;1.95;1.20;;;;;;;;;;6123166;23;20022;-86
2023/06/14 00:31:15;;;;;;;1.63;1.10;;;;;;;;;;6121819;23;20021;-86
2023/06/14 00:33:41;;;;;;;2.55;1.20;;;;;;;;;;6123052;23;20096;-85
2023/06/14 00:36:08;;;;;;;3.38;1.05;;;;;;;;;;6121815;23;20041;-86
2023/06/14 00:38:33;;;;;;;2.50;1.20;;;;;;;;;;6121168;23;20348;-88
2023/06/14 00:41:00;;;;;;;1.10;0.93;;;;;;;;;;6121822;23;20021;-87
2023/06/14 00:43:26;;;;;;;1.17;0.95;;;;;;;;;;6120711;23;20014;-91
2023/06/14 00:45:52;;;;;;;2.00;1.20;;;;;;;;;;6122799;23;20340;-87
2023/06/14 00:48:18;;;;;;;2.20;1.25;;;;;;;;;;6121275;23;20014;-87
2023/06/14 00:50:48;;;;;;;1.65;1.17;;;;;;;;;;6122809;23;20452;-86
2023/06/14 00:53:17;;;;;;;2.63;1.30;;;;;;;;;;6121304;23;20018;-90
2023/06/14 00:55:43;;;;;;;2.28;1.35;;;;;;;;;;6122106;23;20491;-89
2023/06/14 00:58:10;;;;;;;1.70;1.00;;;;;;;;;;6123203;23;20018;-89
2023/06/14 01:00:36;;;;;;;4.63;1.20;;;;;;;;;;6122316;23;20021;-89
2023/06/14 01:03:02;;;;;;;2.78;1.00;;;;;;;;;;6123427;23;20014;-85
2023/06/14 01:05:29;;;;;;;2.83;1.38;;;;;;;;;;6119906;23;20018;-87
2023/06/14 01:08:14;;;;;;;1.50;1.02;;;;;;;;;;6122814;23;20014;-89
2023/06/14 01:10:45;;;;;;;1.15;0.90;;;;;;;;;;6121982;23;20085;-86
2023/06/14 01:13:16;;;;;;;2.55;1.30;;;;;;;;;;6123135;23;20018;-89
2023/06/14 01:15:42;;;;;;;;;;;;;;;;;;6121574;23;20077;-87
2023/06/14 01:18:08;;;;;;;3.78;1.25;;;;;;;;;;6123291;23;19948;-87
2023/06/14 01:20:37;;;;;;;3.13;1.17;;;;;;;;;;6120865;23;20020;-88
2023/06/14 01:23:03;;;;;;;3.00;1.05;;;;;;;;;;6122138;23;20021;-89
2023/06/14 01:25:29;;;;;;;2.35;1.10;;;;;;;;;;6122147;23;20014;-87
2023/06/14 01:28:03;;;;;;;3.40;1.15;;;;;;;;;;6123515;23;20010;-87
2023/06/14 01:30:29;;;;;;;1.95;0.93;;;;;;;;;;6119561;23;20132;-87
2023/06/14 01:32:56;;;;;;;2.63;1.20;;;;;;;;;;6122957;23;20041;-85
2023/06/14 01:35:22;;;;;;;1.25;0.80;;;;;;;;;;6121764;23;20340;-85
2023/06/14 01:37:49;;;;;;;1.20;1.10;;;;;;;;;;6120272;23;20018;-89
2023/06/14 01:40:16;;;;;;;1.92;1.30;;;;;;;;;;6122578;23;20089;-83
2023/06/14 01:42:43;;;;;;;1.50;1.00;;;;;;;;;;6120102;23;20088;-86
2023/06/14 01:45:10;;;;;;;2.35;1.00;;;;;;;;;;6120859;23;20014;-86
2023/06/14 01:47:36;;;;;;;3.80;1.17;;;;;;;;;;6120080;23;20340;-87
2023/06/14 01:50:03;;;;;;;3.00;1.17;;;;;;;;;;6121054;23;20025;-84
2023/06/14 01:52:29;;;;;;;2.90;0.98;;;;;;;;;;6119571;23;20022;-84
2023/06/14 01:54:55;;;;;;;2.50;0.90;;;;;;;;;;6122610;23;20018;-83
2023/06/14 01:57:21;;;;;;;1.73;1.02;;;;;;;;;;6121726;23;20089;-84
2023/06/14 01:59:48;;;;;;;2.40;1.13;;;;;;;;;;6121474;23;20021;-84
2023/06/14 02:02:15;;;;;;;1.50;1.00;;;;;;;;;;6121146;23;20013;-86
2023/06/14 02:04:41;;;;;;;2.80;1.05;;;;;;;;;;6121648;23;20060;-86
2023/06/14 02:07:08;;;;;;;1.70;0.80;;;;;;;;;;6121590;23;20452;-87
2023/06/14 02:09:34;;;;;;;2.13;1.10;;;;;;;;;;6120216;23;20093;-85
2023/06/14 02:12:01;;;;;;;3.72;1.10;;;;;;;;;;6120652;23;20028;-87
2023/06/14 02:14:27;;;;;;;2.13;1.10;;;;;;;;;;6120933;23;20035;-87
2023/06/14 02:16:53;;;;;;;1.50;1.25;;;;;;;;;;6122266;23;20028;-85
2023/06/14 02:19:20;;;;;;;2.65;1.10;;;;;;;;;;6121664;23;20602;-86
2023/06/14 02:21:46;;;;;;;1.58;1.15;;;;;;;;;;6120119;23;20022;-91
2023/06/14 02:24:13;;;;;;;3.03;1.17;;;;;;;;;;6122222;23;20022;-86
2023/06/14 02:26:41;;;;;;;2.22;2.03;;;;;;;;;;6119286;23;20110;-86
2023/06/14 02:29:09;;;;;;;1.70;1.05;;;;;;;;;;6122643;23;20056;-86
2023/06/14 02:31:36;;;;;;;4.47;1.27;;;;;;;;;;6095327;23;20025;-87
2023/06/14 02:34:02;;;;;;;1.40;1.10;;;;;;;;;;6122244;23;20018;-85
2023/06/14 02:36:30;;;;;;;2.00;1.05;;;;;;;;;;6119069;23;20152;-87
2023/06/14 02:38:57;;;;;;;1.98;1.00;;;;;;;;;;6120719;23;20026;-85
2023/06/14 02:41:23;;;;;;;3.60;0.90;;;;;;;;;;6120480;23;20014;-85
2023/06/14 02:43:49;;;;;;;1.50;1.20;;;;;;;;;;6121395;23;20380;-88
2023/06/14 02:46:15;;;;;;;1.58;0.98;;;;;;;;;;6121443;23;20404;-87
2023/06/14 02:48:41;;;;;;;2.20;1.05;;;;;;;;;;6119178;23;20014;-87
2023/06/14 02:51:09;;;;;;;2.67;1.10;;;;;;;;;;6121861;23;20014;-87
2023/06/14 02:53:36;;;;;;;1.65;1.00;;;;;;;;;;6121342;23;20050;-87
2023/06/14 02:56:03;;;;;;;1.80;1.10;;;;;;;;;;6122187;23;20033;-86
2023/06/14 02:58:29;;;;;;;1.33;1.23;;;;;;;;;;6121380;23;20014;-89
2023/06/14 03:00:55;;;;;;;1.38;1.17;;;;;;;;;;6122352;23;20018;-85
2023/06/14 03:03:24;;;;;;;2.72;0.85;;;;;;;;;;6119192;23;20020;-89
2023/06/14 03:05:51;;;;;;;0.82;0.80;;;;;;;;;;6121094;23;20018;-85
2023/06/14 03:08:19;;;;;;;1.80;1.00;;;;;;;;;;6120094;23;20025;-87
2023/06/14 03:10:46;;;;;;;3.30;1.30;;;;;;;;;;6118849;23;20025;-89
2023/06/14 03:13:12;;;;;;;1.98;1.02;;;;;;;;;;6122386;23;20021;-84
2023/06/14 03:15:38;;;;;;;2.80;1.30;;;;;;;;;;6121170;23;20040;-86
2023/06/14 03:18:04;;;;;;;2.72;1.38;;;;;;;;;;6122435;23;20021;-83
2023/06/14 03:20:32;;;;;;;2.88;1.13;;;;;;;;;;6120169;23;20018;-84
2023/06/14 03:22:58;;;;;;;1.33;0.90;;;;;;;;;;6121310;23;20025;-87
2023/06/14 03:25:25;;;;;;;3.38;1.30;;;;;;;;;;6119970;23;20014;-83
2023/06/14 03:27:51;;;;;;;1.60;1.40;;;;;;;;;;6121598;23;20021;-86
2023/06/14 03:30:17;;;;;;;1.80;1.13;;;;;;;;;;6121080;23;20022;-84
2023/06/14 03:32:43;;;;;;;1.52;1.05;;;;;;;;;;6122137;23;20098;-82
2023/06/14 03:35:16;;;;;;;2.75;1.20;;;;;;;;;;6120960;23;20018;-85
2023/06/14 03:37:42;;;;;;;1.63;1.00;;;;;;;;;;6119849;23;20018;-83
2023/06/14 03:40:08;;;;;;;2.05;1.42;;;;;;;;;;6119784;23;20100;-85
2023/06/14 03:42:34;;;;;;;2.53;0.93;;;;;;;;;;6121721;23;20073;-82
2023/06/14 03:45:00;;;;;;;2.75;1.10;;;;;;;;;;6123936;23;20010;-84
2023/06/14 03:47:27;;;;;;;5.75;1.33;;;;;;;;;;6122369;23;20386;-83
2023/06/14 03:49:53;;;;;;;1.88;1.20;;;;;;;;;;6121204;23;20041;-84
2023/06/14 03:52:19;;;;;;;3.50;1.10;;;;;;;;;;6123292;23;20089;-84
2023/06/14 03:54:46;;;;;;;2.35;1.33;;;;;;;;;;6123503;23;20107;-84
2023/06/14 03:57:12;;;;;;;1.52;1.20;;;;;;;;;;6123956;23;20014;-82
2023/06/14 03:59:38;;;;;;;1.30;1.15;;;;;;;;;;6120724;23;20029;-83
2023/06/14 04:02:04;;;;;;;1.77;1.10;;;;;;;;;;6122720;23;20014;-83
2023/06/14 04:04:30;;;;;;;1.98;1.40;;;;;;;;;;6120425;23;20329;-85
2023/06/14 04:06:58;;;;;;;1.60;1.30;;;;;;;;;;6123080;23;20018;-85
2023/06/14 04:09:24;;;;;;;1.85;1.23;;;;;;;;;;6121172;23;20243;-83
2023/06/14 04:11:51;;;;;;;1.85;1.30;;;;;;;;;;6123383;23;20025;-86
2023/06/14 04:14:18;;;;;;;1.60;1.10;;;;;;;;;;6123404;23;20096;-82
2023/06/14 04:16:44;;;;;;;1.70;1.33;;;;;;;;;;6119377;23;20025;-84
2023/06/14 04:19:10;;;;;;;2.28;1.20;;;;;;;;;;6120479;23;20049;-88
2023/06/14 04:21:36;;;;;;;2.40;1.20;;;;;;;;;;6119318;23;20537;-85
2023/06/14 04:24:03;;;;;;;2.55;1.40;;;;;;;;;;6123362;23;20172;-90
2023/06/14 04:26:29;;;;;;;2.65;1.48;;;;;;;;;;6121113;23;20406;-85
2023/06/14 04:28:56;;;;;;;2.60;1.45;;;;;;;;;;6122586;23;20021;-85
2023/06/14 04:31:25;;;;;;;2.17;1.60;;;;;;;;;;6121968;23;20460;-86
2023/06/14 04:33:53;;;;;;;3.83;1.52;;;;;;;;;;6122881;23;20021;-85
2023/06/14 04:36:19;;;;;;;1.92;1.40;;;;;;;;;;6119893;23;20021;-86
2023/06/14 04:38:46;;;;;;;2.58;1.42;;;;;;;;;;6121432;23;20344;-91
2023/06/14 04:41:12;;;;;;;2.38;1.60;;;;;;;;;;6122599;23;20021;-87
2023/06/14 04:43:38;;;;;;;2.40;1.75;;;;;;;;;;6120191;23;20347;-90
2023/06/14 04:46:10;;;;;;;4.20;1.27;;;;;;;;;;6122970;23;20014;-86
2023/06/14 04:48:37;;;;;;;2.92;1.75;;;;;;;;;;6120464;23;20018;-85
2023/06/14 04:51:03;;;;;;;2.92;1.38;;;;;;;;;;6120058;23;20089;-83
2023/06/14 04:53:31;;;;;;;3.33;1.48;;;;;;;;;;6122121;23;20017;-81
2023/06/14 04:55:57;;;;;;;2.90;1.75;;;;;;;;;;6123252;23;20380;-82
2023/06/14 04:58:23;;;;;;;1.98;1.80;;;;;;;;;;6122469;23;20014;-82
2023/06/14 05:00:49;;;;;;;2.20;1.70;;;;;;;;;;6120256;23;20018;-82
2023/06/14 05:03:15;;;;;;;2.35;1.73;;;;;;;;;;6122242;23;20195;-82
2023/06/14 05:05:41;;;;;;;3.28;1.50;;;;;;;;;;6120810;23;20069;-84
2023/06/14 05:08:09;;;;;;;2.88;1.58;;;;;;;;;;6122250;23;20010;-81
2023/06/14 05:10:36;;;;;;;2.35;1.88;;;;;;;;;;6121912;23;20029;-82
2023/06/14 05:13:02;;;;;;;3.63;1.80;;;;;;;;;;6120813;23;20395;-82
2023/06/14 05:15:28;;;;;;;2.08;1.70;;;;;;;;;;6121093;23;20396;-82
2023/06/14 05:17:55;;;;;;;2.83;1.92;;;;;;;;;;6123107;23;20022;-81
2023/06/14 05:20:22;;;;;;;3.17;1.83;;;;;;;;;;6119545;23;20018;-83
2023/06/14 05:22:51;;;;;;;2.65;1.60;;;;;;;;;;6119979;23;20057;-83
2023/06/14 05:25:17;;;;;;;3.60;1.33;;;;;;;;;;6119772;23;20032;-83
2023/06/14 05:27:43;;;;;;;2.92;1.80;;;;;;;;;;6118944;23;20014;-81
2023/06/14 05:30:10;;;;;;;3.97;1.85;;;;;;;;;;6121851;23;20097;-83
2023/06/14 05:32:36;;;;;;;4.20;1.85;;;;;;;;;;6121663;23;20351;-82
2023/06/14 05:35:02;;;;;;;1.95;1.75;;;;;;;;;;6121694;23;20022;-83
2023/06/14 05:37:28;;;;;;;2.50;1.67;;;;;;;;;;6121753;23;20010;-85
2023/06/14 05:39:54;;;;;;;3.85;1.88;;;;;;;;;;6122927;23;20018;-82
2023/06/14 05:42:20;;;;;;;3.85;1.92;;;;;;;;;;6121830;23;20527;-81
2023/06/14 05:44:46;;;;;;;3.03;1.67;;;;;;;;;;6121909;23;20077;-81
2023/06/14 05:47:12;;;;;;;2.60;1.73;;;;;;;;;;6122432;23;20368;-82
2023/06/14 05:49:38;;;;;;;4.78;1.95;;;;;;;;;;6119987;23;20021;-81
2023/06/14 05:52:04;;;;;;;2.78;1.95;;;;;;;;;;6122044;23;20028;-83
2023/06/14 05:54:30;;;;;;;4.30;2.17;;;;;;;;;;6121427;23;20010;-81
2023/06/14 05:57:01;;;;;;;4.03;1.70;;;;;;;;;;6122681;23;20014;-83
2023/06/14 05:59:27;;;;;;;2.92;1.80;;;;;;;;;;6120752;23;20380;-82
2023/06/14 06:01:53;;;;;;;5.30;2.22;;;;;;;;;;6122015;23;20073;-80
2023/06/14 06:04:19;;;;;;;1.98;1.77;;;;;;;;;;6119411;23;20041;-83
2023/06/14 06:06:46;;;;;;;2.95;2.10;;;;;;;;;;6121848;23;20087;-81
2023/06/14 06:09:14;;;;;;;5.43;1.77;;;;;;;;;;6121167;23;20022;-82
2023/06/14 06:11:40;;;;;;;2.30;1.60;;;;;;;;;;6119451;23;20090;-83
2023/06/14 06:14:06;;;;;;;2.92;1.70;;;;;;;;;;6119929;23;20356;-81
2023/06/14 06:16:33;;;;;;;1.85;1.50;;;;;;;;;;6118621;23;20069;-84
2023/06/14 06:18:59;;;;;;;4.63;1.70;;;;;;;;;;6119923;23;20026;-87
2023/06/14 06:21:25;;;;;;;2.35;1.30;;;;;;;;;;6119245;23;20021;-84
2023/06/14 06:23:51;;;;;;;2.17;1.58;;;;;;;;;;6095404;23;20092;-84
2023/06/14 06:26:17;;;;;;;3.38;1.80;;;;;;;;;;6095858;23;20470;-84
2023/06/14 06:28:43;;;;;;;3.00;2.03;;;;;;;;;;6121697;23;20014;-85
2023/06/14 06:31:11;;;;;;;6.30;2.20;;;;;;;;;;6119858;23;20017;-90
2023/06/14 06:33:37;;;;;;;2.00;1.80;;;;;;;;;;6119376;23;20377;-84
2023/06/14 06:36:03;;;;;;;1.95;1.75;;;;;;;;;;6120589;23;20344;-88
2023/06/14 06:38:29;;;;;;;3.75;1.77;;;;;;;;;;6121880;23;20014;-87
2023/06/14 06:40:56;;;;;;;4.57;1.67;;;;;;;;;;6121892;23;20385;-83
2023/06/14 06:43:22;;;;;;;3.38;1.83;;;;;;;;;;6118340;23;20017;-89
2023/06/14 06:45:48;;;;;;;2.28;1.67;;;;;;;;;;6094868;23;20045;-87
2023/06/14 06:48:15;;;;;;;3.20;1.65;;;;;;;;;;6116745;23;20020;-86
2023/06/14 06:50:52;;;;;;;2.65;1.45;;;;;;;;;;6120451;23;20348;-85
2023/06/14 06:53:18;;;;;;;2.38;1.70;;;;;;;;;;6120140;23;20018;-83
2023/06/14 06:55:44;;;;;;;3.00;1.40;;;;;;;;;;6119193;23;20439;-86
2023/06/14 06:58:10;;;;;;;2.80;1.60;;;;;;;;;;6118620;23;20009;-85
2023/06/14 07:00:36;;;;;;;2.40;1.60;;;;;;;;;;6120319;23;20094;-86
2023/06/14 07:03:03;;;;;;;2.85;1.50;;;;;;;;;;6117999;23;20010;-83
2023/06/14 07:05:29;;;;;;;2.65;1.73;;;;;;;;;;6119714;23;20014;-83
2023/06/14 07:07:56;;;;;;;3.25;1.52;;;;;;;;;;6121019;23;20014;-89
2023/06/14 07:10:22;;;;;;;2.15;1.52;;;;;;;;;;6119264;23;20014;-85
2023/06/14 07:12:48;;;;;;;2.42;1.38;;;;;;;;;;6121596;23;20018;-85
2023/06/14 07:15:14;;;;;;;2.03;1.70;;;;;;;;;;6119099;23;20018;-92
2023/06/14 07:17:41;;;;;;;1.92;1.27;;;;;;;;;;6120711;23;20068;-89
2023/06/14 07:20:08;;;;;;;2.45;1.98;;;;;;;;;;6122458;23;20053;-92
2023/06/14 07:22:34;;;;;;;4.15;1.50;;;;;;;;;;6124226;23;20068;-85
2023/06/14 07:24:59;;;;;;;2.67;1.98;;;;;;;;;;6120368;23;20049;-86
2023/06/14 07:27:25;;;;;;;2.17;1.83;;;;;;;;;;6120555;23;20022;-86
2023/06/14 07:29:52;;;;;;;2.42;1.52;;;;;;;;;;6121125;23;20097;-83
2023/06/14 07:32:18;;;;;;;2.63;1.77;;;;;;;;;;6121530;23;20018;-82
2023/06/14 07:34:44;;;;;;;1.50;1.27;;;;;;;;;;6123637;23;20029;-88
2023/06/14 07:37:10;;;;;;;2.45;1.38;;;;;;;;;;6123206;23;20351;-95
2023/06/14 07:39:36;;;;;;;1.98;1.50;;;;;;;;;;6097178;23;20442;-85
2023/06/14 07:42:02;;;;;;;1.95;1.73;;;;;;;;;;6122229;23;20340;-93
2023/06/14 07:44:33;;;;;;;3.47;1.40;;;;;;;;;;6122054;23;20013;-84
2023/06/14 07:46:59;;;;;;;2.03;1.33;;;;;;;;;;6123380;23;20432;-85
2023/06/14 07:49:26;;;;;;;3.15;1.48;;;;;;;;;;6121756;23;20026;-86
2023/06/14 07:51:53;;;;;;;3.30;1.10;;;;;;;;;;6122064;23;20049;-85
2023/06/14 07:54:19;;;;;;;1.70;1.27;;;;;;;;;;6121378;23;20339;-86
2023/06/14 07:56:45;;;;;;;1.92;1.25;;;;;;;;;;6120605;23;20073;-86
2023/06/14 07:59:11;;;;;;;1.70;1.30;;;;;;;;;;6122249;23;20018;-83
2023/06/14 08:01:37;;;;;;;1.63;1.42;;;;;;;;;;6121580;23;20584;-89
2023/06/14 08:04:03;;;;;;;1.40;1.13;;;;;;;;;;6122150;23;20010;-85
2023/06/14 08:06:30;;;;;;;1.65;1.50;;;;;;;;;;6118315;23;20202;-85
2023/06/14 08:08:56;;;;;;;2.42;1.55;;;;;;;;;;6121881;23;20014;-85
2023/06/14 08:11:24;;;;;;;3.13;1.73;;;;;;;;;;6120472;23;20359;-83
2023/06/14 08:13:50;;;;;;;1.88;1.23;;;;;;;;;;6120183;23;20016;-85
2023/06/14 08:16:16;;;;;;;4.20;1.30;;;;;;;;;;6121888;23;20025;-85
2023/06/14 08:18:42;;;;;;;2.67;1.25;;;;;;;;;;6123316;23;20010;-83
2023/06/14 08:21:08;;;;;;;2.97;1.30;;;;;;;;;;6123027;23;20351;-84
2023/06/14 08:23:34;;;;;;;2.05;1.50;;;;;;;;;;6122038;23;20025;-82
2023/06/14 08:26:01;;;;;;;5.05;1.20;;;;;;;;;;6121618;23;20018;-81
2023/06/14 08:28:27;;;;;;;2.85;1.30;;;;;;;;;;6120189;23;20411;-83
2023/06/14 08:30:53;;;;;;;1.20;1.05;;;;;;;;;;6122846;23;20021;-83
2023/06/14 08:33:19;;;;;;;2.58;1.05;;;;;;;;;;6120945;23;20049;-82
2023/06/14 08:35:45;;;;;;;2.33;1.30;;;;;;;;;;6123377;23;20394;-88
2023/06/14 08:38:11;;;;;;;1.92;1.33;;;;;;;;;;6121133;23;20574;-83
2023/06/14 08:40:38;;;;;;;1.50;1.40;;;;;;;;;;6122143;23;20041;-82
2023/06/14 08:43:04;;;;;;;1.83;1.00;;;;;;;;;;6121642;23;20025;-82
2023/06/14 08:45:30;;;;;;;1.48;1.20;;;;;;;;;;6118784;23;20013;-82
2023/06/14 08:47:59;;;;;;;2.13;1.10;;;;;;;;;;6121573;23;20014;-83
2023/06/14 08:50:26;;;;;;;2.08;1.15;;;;;;;;;;6122929;23;20040;-83
2023/06/14 08:52:54;;;;;;;2.50;1.25;;;;;;;;;;6122575;23;20033;-81
2023/06/14 08:55:20;;;;;;;1.90;1.00;;;;;;;;;;6121259;23;20025;-83
2023/06/14 08:57:50;;;;;;;3.35;1.55;;;;;;;;;;6122656;23;20387;-81
2023/06/14 09:00:17;;;;;;;1.88;1.20;;;;;;;;;;6122954;23;20110;-84
2023/06/14 09:02:43;;;;;;;2.55;1.38;;;;;;;;;;6120904;23;20018;-82
2023/06/14 09:05:13;;;;;;;2.50;1.20;;;;;;;;;;6121401;23;20014;-81
2023/06/14 09:07:40;;;;;;;2.15;1.35;;;;;;;;;;6121698;23;20018;-84
2023/06/14 09:10:16;;;;;;;1.85;1.25;;;;;;;;;;6123209;23;20064;-81
2023/06/14 09:12:42;;;;;;;2.10;1.30;;;;;;;;;;6122297;23;20102;-82
2023/06/14 09:15:08;;;;;;;3.50;1.27;;;;;;;;;;6095291;23;20130;-83
2023/06/14 09:17:35;;;;;;;1.17;1.00;;;;;;;;;;6120478;23;20017;-84
2023/06/14 09:20:05;;;;;;;2.47;1.45;;;;;;;;;;6122217;23;20029;-89
2023/06/14 09:22:32;;;;;;;1.75;1.10;;;;;;;;;;6120442;23;20046;-86
2023/06/14 09:24:58;;;;;;;1.42;1.10;;;;;;;;;;6121324;23;20014;-86
2023/06/14 09:27:26;;;;;;;3.92;1.15;;;;;;;;;;6122406;23;20033;-85
2023/06/14 09:29:52;;;;;;;3.03;1.10;;;;;;;;;;6123012;23;20045;-83
2023/06/14 09:32:18;;;;;;;5.32;1.33;;;;;;;;;;6122889;23;20021;-86
2023/06/14 09:34:46;;;;;;;6.60;2.00;;;;;;;;;;6122089;23;20021;-88
2023/06/14 09:37:12;;;;;;;4.55;1.33;;;;;;;;;;6122387;23;20021;-93
2023/06/14 09:39:51;;;;;;;2.28;1.48;;;;;;;;;;6119859;23;20347;-86
2023/06/14 09:42:20;;;;;;;1.65;1.35;;;;;;;;;;6122975;23;20045;-87
2023/06/14 09:44:48;;;;;;;1.85;1.23;;;;;;;;;;6120702;23;20046;-89
2023/06/14 09:47:15;;;;;;;2.42;1.20;;;;;;;;;;6122212;23;20018;-86
2023/06/14 09:49:41;;;;;;;2.28;1.15;;;;;;;;;;6121847;23;20017;-88
2023/06/14 09:52:08;;;;;;;4.43;1.33;;;;;;;;;;6121081;23;20033;-91
2023/06/14 09:54:37;;;;;;;1.10;1.00;;;;;;;;;;6122950;23;20034;-87
2023/06/14 09:57:03;;;;;;;1.65;1.10;;;;;;;;;;6119691;23;20014;-87
2023/06/14 09:59:31;;;;;;;2.08;1.10;;;;;;;;;;6121175;23;20018;-87
2023/06/14 10:02:04;;;;;;;3.47;1.20;;;;;;;;;;6121171;23;20018;-86
2023/06/14 10:04:30;;;;;;;6.78;1.42;;;;;;;;;;6120077;23;20427;-85
2023/06/14 10:06:57;;;;;;;14.65;1.67;;;;;;;;;;6122022;23;20021;-87
2023/06/14 10:09:23;;;;;;;1.73;1.17;;;;;;;;;;6119397;23;20022;-88
2023/06/14 10:11:49;;;;;;;2.58;1.08;;;;;;;;;;6122672;23;20057;-85
2023/06/14 10:14:15;;;;;;;4.57;1.60;;;;;;;;;;6122963;23;20040;-85
2023/06/14 10:17:14;;;;;;;1.13;0.90;;;;;;;;;;6121327;23;20069;-91
2023/06/14 10:19:53;;;;;;;4.43;1.35;;;;;;;;;;6056950;23;20068;-90
2023/06/14 10:22:22;;;;;;;3.78;1.08;;;;;;;;;;6121763;23;20018;-92
2023/06/14 10:24:50;;;;;;;1.25;0.90;;;;;;;;;;6122517;23;20036;-89
2023/06/14 10:27:23;;;;;;;1.45;0.77;;;;;;;;;;6122717;23;20045;-88
2023/06/14 10:29:58;;;;;;;1.85;1.13;;;;;;;;;;6119882;23;20056;-89
2023/06/14 10:32:28;;;;;;;1.17;0.80;;;;;;;;;;6122762;23;20014;-87
2023/06/14 10:35:16;;;;;;;1.42;0.80;;;;;;;;;;6122826;23;20081;-89
2023/06/14 10:37:42;;;;;;;1.20;1.00;;;;;;;;;;6123140;23;20068;-87
2023/06/14 10:40:08;;;;;;;3.03;1.20;;;;;;;;;;6123260;23;20093;-90
2023/06/14 10:42:34;;;;;;;4.72;1.20;;;;;;;;;;6122077;23;20010;-90
2023/06/14 10:45:01;;;;;;;2.30;0.98;;;;;;;;;;6121533;23;20041;-84
2023/06/14 10:47:28;;;;;;;1.20;1.00;;;;;;;;;;6120517;23;20018;-91
2023/06/14 10:50:13;;;;;;;2.47;1.00;;;;;;;;;;6121741;23;20026;-94
2023/06/14 10:52:41;;;;;;;1.73;1.25;;;;;;;;;;6121281;23;20022;-90
2023/06/14 10:55:12;;;;;;;4.00;1.20;;;;;;;;;;6122848;23;20018;-90
2023/06/14 10:57:39;;;;;;;4.18;1.20;;;;;;;;;;6121852;23;20021;-88
2023/06/14 11:00:12;;;;;;;2.30;1.00;;;;;;;;;;6121973;23;20073;-92
2023/06/14 11:02:57;;;;;;;1.65;1.30;;;;;;;;;;6123174;23;20018;-88
2023/06/14 11:05:26;;;;;;;2.83;0.98;;;;;;;;;;6122420;23;20451;-91
2023/06/14 11:08:11;;;;;;;1.20;1.10;;;;;;;;;;6121472;23;20276;-86
2023/06/14 11:10:40;;;;;;;0.80;0.75;;;;;;;;;;6122182;23;20073;-90
2023/06/14 11:13:06;;;;;;;1.10;1.00;;;;;;;;;;6122684;23;20018;-87
2023/06/14 11:15:33;;;;;;;5.70;1.20;;;;;;;;;;6122248;23;20052;-90
2023/06/14 11:18:03;;;;;;;1.77;0.90;;;;;;;;;;6121988;23;20088;-91
2023/06/14 11:20:31;;;;;;;1.27;0.88;;;;;;;;;;6119585;23;20025;-89
2023/06/14 11:22:57;;;;;;;1.38;1.00;;;;;;;;;;6122361;23;20022;-84
2023/06/14 11:25:23;;;;;;;1.95;1.05;;;;;;;;;;6122431;23;20020;-88
2023/06/14 11:27:50;;;;;;;0.93;0.85;;;;;;;;;;6121141;23;20022;-88
2023/06/14 11:30:16;;;;;;;2.65;0.90;;;;;;;;;;6120041;23;20026;-88
2023/06/14 11:32:42;;;;;;;1.40;0.90;;;;;;;;;;6121867;23;20324;-88
2023/06/14 11:35:09;;;;;;;1.45;0.90;;;;;;;;;;6121301;23;20343;-89
2023/06/14 11:37:37;;;;;;;4.25;1.13;;;;;;;;;;6120351;23;20021;-89
2023/06/14 11:40:07;;;;;;;2.60;1.00;;;;;;;;;;6121928;23;20014;-91
2023/06/14 11:42:34;;;;;;;1.20;0.93;;;;;;;;;;6120046;23;20018;-91
2023/06/14 11:45:02;;;;;;;1.25;1.10;;;;;;;;;;6121963;23;20017;-86
2023/06/14 11:47:37;;;;;;;2.60;1.05;;;;;;;;;;6120530;23;20072;-86
2023/06/14 11:50:04;;;;;;;1.75;1.10;;;;;;;;;;6125179;23;20365;-88
2023/06/14 11:52:31;;;;;;;1.58;0.90;;;;;;;;;;6120030;23;20069;-85
2023/06/14 11:54:57;;;;;;;1.55;0.80;;;;;;;;;;6120294;23;20025;-86
2023/06/14 11:57:24;;;;;;;2.38;0.90;;;;;;;;;;6119365;23;20017;-89
2023/06/14 11:59:50;;;;;;;1.40;1.05;;;;;;;;;;6122995;23;20435;-86
2023/06/14 12:02:16;;;;;;;2.67;1.13;;;;;;;;;;6122806;23;20360;-92
2023/06/14 12:04:43;;;;;;;1.00;0.90;;;;;;;;;;6122749;23;20018;-91
2023/06/14 12:07:12;;;;;;;3.28;1.00;;;;;;;;;;6124235;23;20014;-89
2023/06/14 12:09:39;;;;;;;1.58;0.90;;;;;;;;;;6122981;23;20107;-91
2023/06/14 12:12:06;;;;;;;3.20;1.10;;;;;;;;;;6125105;23;20028;-94
2023/06/14 12:14:32;;;;;;;2.42;1.00;;;;;;;;;;6124184;23;20021;-91
2023/06/14 12:17:07;;;;;;;1.35;0.80;;;;;;;;;;6124043;23;20021;-94
2023/06/14 12:19:33;;;;;;;1.38;1.10;;;;;;;;;;6123302;23;20014;-87
2023/06/14 12:22:04;;;;;;;1.48;1.30;;;;;;;;;;6123564;23;20045;-91
2023/06/14 12:24:31;;;;;;;2.45;1.20;;;;;;;;;;6122461;23;20021;-85
2023/06/14 12:27:00;;;;;;;2.33;1.10;;;;;;;;;;6122559;23;20383;-90
2023/06/14 12:29:26;;;;;;;0.90;0.80;;;;;;;;;;6123261;23;20025;-87
2023/06/14 12:31:54;;;;;;;1.35;1.00;;;;;;;;;;6121769;23;20021;-88
2023/06/14 12:34:20;;;;;;;5.85;1.40;;;;;;;;;;6123464;23;20101;-91
2023/06/14 12:36:46;;;;;;;1.98;0.88;;;;;;;;;;6123288;23;20018;-85
2023/06/14 12:39:12;;;;;;;1.52;1.05;;;;;;;;;;6124515;23;20093;-88
2023/06/14 12:41:41;;;;;;;1.08;1.00;;;;;;;;;;6124161;23;20216;-92
2023/06/14 12:44:07;;;;;;;0.93;0.73;;;;;;;;;;6121382;23;20117;-91
2023/06/14 12:46:33;;;;;;;1.20;1.05;;;;;;;;;;6120811;23;20069;-86
2023/06/14 12:48:59;;;;;;;2.88;0.90;;;;;;;;;;6121356;23;20064;-88
2023/06/14 12:51:25;;;;;;;0.93;0.85;;;;;;;;;;6122081;23;20018;-89
2023/06/14 12:53:51;;;;;;;1.35;1.20;;;;;;;;;;6123032;23;20316;-86
2023/06/14 12:56:18;;;;;;;1.85;1.15;;;;;;;;;;6123726;23;20014;-86
2023/06/14 12:58:44;;;;;;;1.35;0.90;;;;;;;;;;6122368;23;20014;-88
2023/06/14 13:01:10;;;;;;;1.70;0.73;;;;;;;;;;6120671;23;20029;-88
2023/06/14 13:03:36;;;;;;;1.13;1.02;;;;;;;;;;6120854;23;20065;-86
2023/06/14 13:06:04;;;;;;;2.08;1.13;;;;;;;;;;6121681;23;20018;-86
2023/06/14 13:08:30;;;;;;;1.35;1.00;;;;;;;;;;6122322;23;20069;-91
2023/06/14 13:10:56;;;;;;;3.85;1.20;;;;;;;;;;6123881;23;20040;-87
2023/06/14 13:13:22;;;;;;;2.97;1.20;;;;;;;;;;6121089;23;20018;-89
2023/06/14 13:15:49;;;;;;;1.40;1.20;;;;;;;;;;6121172;23;20014;-87
2023/06/14 13:18:15;;;;;;;1.58;1.13;;;;;;;;;;6123178;23;20022;-86
2023/06/14 13:20:42;;;;;;;2.10;1.20;;;;;;;;;;6122119;23;20055;-91
2023/06/14 13:23:08;;;;;;;3.97;1.17;;;;;;;;;;6120881;23;20026;-90
2023/06/14 13:25:35;;;;;;;2.58;0.98;;;;;;;;;;6122656;23;20013;-85
2023/06/14 13:28:01;;;;;;;1.23;0.95;;;;;;;;;;6122559;23;20024;-89
2023/06/14 13:30:27;;;;;;;1.13;1.02;;;;;;;;;;6124419;23;20045;-92
2023/06/14 13:32:53;;;;;;;1.73;1.08;;;;;;;;;;6122224;23;20499;-86
2023/06/14 13:35:20;;;;;;;1.20;0.90;;;;;;;;;;6123031;23;20331;-83
2023/06/14 13:37:46;;;;;;;2.28;1.02;;;;;;;;;;6122981;23;20081;-86
2023/06/14 13:40:12;;;;;;;1.30;1.10;;;;;;;;;;6123892;23;20014;-85
2023/06/14 13:42:38;;;;;;;2.03;1.00;;;;;;;;;;6121597;23;20340;-85
2023/06/14 13:45:05;;;;;;;1.58;1.13;;;;;;;;;;6123599;23;20014;-88
2023/06/14 13:47:31;;;;;;;1.38;1.10;;;;;;;;;;6121557;23;20049;-88
2023/06/14 13:49:57;;;;;;;1.30;1.10;;;;;;;;;;6123156;23;20025;-90
2023/06/14 13:52:24;;;;;;;1.23;1.00;;;;;;;;;;6122631;23;20014;-89
2023/06/14 13:54:50;;;;;;;1.25;1.00;;;;;;;;;;6123418;23;20045;-86
2023/06/14 13:57:17;;;;;;;1.23;1.02;;;;;;;;;;6119430;23;20022;-89
2023/06/14 13:59:44;;;;;;;2.03;1.10;;;;;;;;;;6121931;23;20076;-87
2023/06/14 14:02:11;;;;;;;3.67;1.25;;;;;;;;;;6123259;23;20014;-93
2023/06/14 14:04:37;;;;;;;1.13;0.90;;;;;;;;;;6121577;23;20018;-85
2023/06/14 14:07:04;;;;;;;1.50;0.90;;;;;;;;;;6123548;23;20339;-86
2023/06/14 14:09:30;;;;;;;1.25;1.15;;;;;;;;;;6125399;23;20065;-89
2023/06/14 14:11:56;;;;;;;1.63;1.33;;;;;;;;;;6122142;23;20018;-86
2023/06/14 14:14:23;;;;;;;3.50;1.20;;;;;;;;;;6121750;23;20014;-95
2023/06/14 14:16:51;;;;;;;1.45;1.00;;;;;;;;;;6121433;23;20018;-89
2023/06/14 14:19:18;;;;;;;1.88;0.95;;;;;;;;;;6122592;23;20014;-84
2023/06/14 14:21:44;;;;;;;2.05;1.17;;;;;;;;;;6122194;23;20024;-82
2023/06/14 14:24:10;;;;;;;1.65;1.25;;;;;;;;;;6123323;23;20025;-87
2023/06/14 14:26:37;;;;;;;2.70;1.13;;;;;;;;;;6120119;23;20013;-90
2023/06/14 14:29:03;;;;;;;1.65;0.90;;;;;;;;;;6123144;23;20013;-88
2023/06/14 14:31:29;;;;;;;2.25;0.80;;;;;;;;;;6119610;23;20014;-87
2023/06/14 14:33:55;;;;;;;1.67;1.13;;;;;;;;;;6120139;23;20045;-90
2023/06/14 14:36:21;;;;;;;1.38;1.27;;;;;;;;;;6121660;23;20344;-90
2023/06/14 14:38:47;;;;;;;1.42;1.30;;;;;;;;;;6125380;23;20017;-87
2023/06/14 14:41:13;;;;;;;1.35;1.08;;;;;;;;;;6122678;23;20332;-93
2023/06/14 14:43:39;;;;;;;1.40;1.10;;;;;;;;;;6121910;23;20024;-85